Time;durP1;ratioP1;P1;durP2;ratioP2;P2;SDS_P1;SDS_P2;PMS_P1;PMS_P2;Temp;Humidity;BMP_temperature;BMP_pressure;BME280_temperature;BME280_humidity;BME280_pressure;Samples;Min_cycle;Max_cycle;Signal;HPM_P1;HPM_P2
2022/07/22 00:01:30;;;;;;;;;;;27.50;40.10;;;;;;5032044;28;19909;-61
2022/07/22 00:03:56;;;;;;;;;;;27.50;40.20;;;;;;5031646;28;20004;-62
2022/07/22 00:06:22;;;;;;;;;;;27.50;40.50;;;;;;5031919;28;19913;-61
2022/07/22 00:08:48;;;;;;;;;;;27.40;40.50;;;;;;5032092;28;19913;-61
2022/07/22 00:11:13;;;;;;;;;;;27.40;41.20;;;;;;5031903;28;19913;-62
2022/07/22 00:13:39;;;;;;;;;;;27.40;41.30;;;;;;5031699;28;19913;-61
2022/07/22 00:16:04;;;;;;;;;;;27.40;41.00;;;;;;5031762;28;19955;-62
2022/07/22 00:18:30;;;;;;;;;;;27.50;40.80;;;;;;5031868;28;19909;-60
2022/07/22 00:20:56;;;;;;;;;;;27.30;41.30;;;;;;5031740;28;19920;-60
2022/07/22 00:23:21;;;;;;;;;;;27.10;42.10;;;;;;5031754;28;19920;-63
2022/07/22 00:25:47;;;;;;;;;;;27.00;42.70;;;;;;5031995;28;19973;-61
2022/07/22 00:28:12;;;;;;;;;;;27.00;42.80;;;;;;5031827;28;19920;-61
2022/07/22 00:30:38;;;;;;;;;;;27.00;42.80;;;;;;5031727;28;20362;-60
2022/07/22 00:33:03;;;;;;;;;;;27.10;42.80;;;;;;5031758;28;19924;-60
2022/07/22 00:35:29;;;;;;;;;;;27.20;42.30;;;;;;5031539;28;19928;-61
2022/07/22 00:37:54;;;;;;;;;;;27.20;42.00;;;;;;5031602;28;19995;-62
2022/07/22 00:40:20;;;;;;;;;;;27.20;42.00;;;;;;5031718;28;20006;-61
2022/07/22 00:42:45;;;;;;;;;;;27.00;42.50;;;;;;5031643;28;19913;-60
2022/07/22 00:45:11;;;;;;;;;;;26.70;42.80;;;;;;5031557;28;20376;-62
2022/07/22 00:47:37;;;;;;;;;;;26.80;43.10;;;;;;5031719;28;19909;-61
2022/07/22 00:50:03;;;;;;;;;;;26.70;43.70;;;;;;5035252;28;19913;-60
2022/07/22 00:52:29;;;;;;;;;;;26.70;43.60;;;;;;5035240;28;19909;-61
2022/07/22 00:54:55;;;;;;;;;;;26.70;43.60;;;;;;5035059;28;19971;-61
2022/07/22 00:57:20;;;;;;;;;;;26.60;44.00;;;;;;5035173;28;19913;-61
2022/07/22 00:59:46;;;;;;;;;;;26.60;44.10;;;;;;5035181;28;20345;-61
2022/07/22 01:02:11;;;;;;;;;;;26.60;44.00;;;;;;5035204;28;19988;-60
2022/07/22 01:04:37;;;;;;;;;;;26.70;43.90;;;;;;5034920;28;19996;-61
2022/07/22 01:07:03;;;;;;;;;;;26.80;43.90;;;;;;5034842;28;19952;-61
2022/07/22 01:09:28;;;;;;;;;;;26.80;43.60;;;;;;5035002;28;19909;-60
2022/07/22 01:11:54;;;;;;;;;;;26.80;43.20;;;;;;5035393;28;19987;-61
2022/07/22 01:14:19;;;;;;;;;;;26.80;43.50;;;;;;5034636;28;20362;-60
2022/07/22 01:16:45;;;;;;;;;;;26.80;43.50;;;;;;5034740;28;19932;-60
2022/07/22 01:19:11;;;;;;;;;;;26.90;43.50;;;;;;5034652;28;19971;-61
2022/07/22 01:21:36;;;;;;;;;;;27.00;43.20;;;;;;5034807;28;20328;-61
2022/07/22 01:24:03;;;;;;;;;;;26.90;43.50;;;;;;5034741;28;19909;-62
2022/07/22 01:26:29;;;;;;;;;;;26.90;43.60;;;;;;5034479;28;20317;-60
2022/07/22 01:28:54;;;;;;;;;;;26.90;43.30;;;;;;5035060;28;19959;-61
2022/07/22 01:31:20;;;;;;;;;;;26.70;43.20;;;;;;5034544;28;19990;-60
2022/07/22 01:33:46;;;;;;;;;;;26.60;43.60;;;;;;5034461;28;19920;-61
2022/07/22 01:36:11;;;;;;;;;;;26.60;43.50;;;;;;5034280;28;19917;-61
2022/07/22 01:38:37;;;;;;;;;;;26.60;43.40;;;;;;5034498;28;19913;-62
2022/07/22 01:41:03;;;;;;;;;;;26.50;44.10;;;;;;5034600;28;20345;-62
2022/07/22 01:43:28;;;;;;;;;;;26.60;43.50;;;;;;5034067;28;19921;-60
2022/07/22 01:45:54;;;;;;;;;;;26.60;43.70;;;;;;5034372;28;19917;-62
2022/07/22 01:48:20;;;;;;;;;;;26.70;43.20;;;;;;5034296;28;19913;-60
2022/07/22 01:50:46;;;;;;;;;;;26.60;43.20;;;;;;5034113;28;19959;-60
2022/07/22 01:53:12;;;;;;;;;;;26.40;44.00;;;;;;5034141;28;20317;-61
2022/07/22 01:55:37;;;;;;;;;;;26.30;44.50;;;;;;5033954;28;19921;-61
2022/07/22 01:58:04;;;;;;;;;;;26.20;44.60;;;;;;5034141;28;19957;-61
2022/07/22 02:00:29;;;;;;;;;;;26.40;44.30;;;;;;5033557;28;19909;-60
2022/07/22 02:02:55;;;;;;;;;;;26.30;44.10;;;;;;5033905;28;19920;-61
2022/07/22 02:05:21;;;;;;;;;;;26.40;43.90;;;;;;5034034;28;19909;-61
2022/07/22 02:07:46;;;;;;;;;;;26.30;44.20;;;;;;5033773;28;20000;-63
2022/07/22 02:10:12;;;;;;;;;;;26.10;45.20;;;;;;5033724;28;19909;-60
2022/07/22 02:12:37;;;;;;;;;;;26.00;45.00;;;;;;5033711;28;19909;-61
2022/07/22 02:15:03;;;;;;;;;;;26.00;45.30;;;;;;5032383;28;19917;-60
2022/07/22 02:17:29;;;;;;;;;;;25.90;45.60;;;;;;5033506;28;19916;-61
2022/07/22 02:19:54;;;;;;;;;;;25.90;45.60;;;;;;5033572;28;19916;-60
2022/07/22 02:22:20;;;;;;;;;;;25.90;45.10;;;;;;5033875;28;19913;-61
2022/07/22 02:24:46;;;;;;;;;;;25.90;45.10;;;;;;5033447;28;19955;-60
2022/07/22 02:27:12;;;;;;;;;;;26.00;45.30;;;;;;5033622;28;20007;-62
2022/07/22 02:29:37;;;;;;;;;;;26.20;43.30;;;;;;5033241;28;19952;-60
2022/07/22 02:32:03;;;;;;;;;;;26.50;42.10;;;;;;5032046;28;19916;-61
2022/07/22 02:34:28;;;;;;;;;;;26.80;40.60;;;;;;5033133;28;19996;-62
2022/07/22 02:36:54;;;;;;;;;;;27.10;40.10;;;;;;5033371;28;19913;-61
2022/07/22 02:39:20;;;;;;;;;;;27.40;39.60;;;;;;5033416;28;20320;-61
2022/07/22 02:41:45;;;;;;;;;;;27.50;39.60;;;;;;5033346;28;20273;-60
2022/07/22 02:44:11;;;;;;;;;;;27.50;39.30;;;;;;5032898;28;19987;-62
2022/07/22 02:46:36;;;;;;;;;;;27.50;39.50;;;;;;5032975;28;19959;-62
2022/07/22 02:49:04;;;;;;;;;;;27.70;38.50;;;;;;5033072;28;19913;-64
2022/07/22 02:51:30;;;;;;;;;;;27.90;38.30;;;;;;5033285;28;20012;-61
2022/07/22 02:53:55;;;;;;;;;;;27.80;38.50;;;;;;5032867;28;20024;-63
2022/07/22 02:56:21;;;;;;;;;;;27.80;38.60;;;;;;5032899;28;19917;-60
2022/07/22 02:58:46;;;;;;;;;;;27.80;38.20;;;;;;5032876;28;19920;-62
2022/07/22 03:01:13;;;;;;;;;;;27.90;38.10;;;;;;5033004;28;20000;-62
2022/07/22 03:03:38;;;;;;;;;;;28.00;37.50;;;;;;5032794;28;19913;-62
2022/07/22 03:06:04;;;;;;;;;;;28.20;37.40;;;;;;5032897;28;19921;-60
2022/07/22 03:08:30;;;;;;;;;;;28.20;37.70;;;;;;5032798;28;19918;-59
2022/07/22 03:10:55;;;;;;;;;;;28.20;37.50;;;;;;5032631;28;19909;-60
2022/07/22 03:13:21;;;;;;;;;;;28.30;37.10;;;;;;5031708;28;19955;-60
2022/07/22 03:15:46;;;;;;;;;;;28.30;37.40;;;;;;5032607;28;19924;-60
2022/07/22 03:18:12;;;;;;;;;;;28.20;38.20;;;;;;5032560;28;19916;-61
2022/07/22 03:20:37;;;;;;;;;;;28.10;38.10;;;;;;5032557;28;19913;-61
2022/07/22 03:23:03;;;;;;;;;;;27.90;37.90;;;;;;5032554;28;19910;-61
2022/07/22 03:25:30;;;;;;;;;;;27.90;38.20;;;;;;5032447;28;20365;-61
2022/07/22 03:27:56;;;;;;;;;;;27.90;39.00;;;;;;5031594;28;20276;-61
2022/07/22 03:30:22;;;;;;;;;;;27.70;39.40;;;;;;5032396;28;19909;-61
2022/07/22 03:32:47;;;;;;;;;;;27.60;39.80;;;;;;5032158;28;19920;-60
2022/07/22 03:35:14;;;;;;;;;;;27.40;40.00;;;;;;5032167;28;19923;-61
2022/07/22 03:37:40;;;;;;;;;;;27.30;40.40;;;;;;5032667;28;19913;-62
2022/07/22 03:40:06;;;;;;;;;;;27.20;40.50;;;;;;5032473;28;20004;-61
2022/07/22 03:42:32;;;;;;;;;;;27.20;41.00;;;;;;5032159;28;20004;-60
2022/07/22 03:44:57;;;;;;;;;;;27.30;40.70;;;;;;5031969;28;19925;-61
2022/07/22 03:47:23;;;;;;;;;;;27.10;41.00;;;;;;5032289;28;19920;-60
2022/07/22 03:49:49;;;;;;;;;;;27.20;41.00;;;;;;5032282;28;19917;-60
2022/07/22 03:52:15;;;;;;;;;;;27.20;41.20;;;;;;5032563;28;19948;-61
2022/07/22 03:54:41;;;;;;;;;;;27.10;41.30;;;;;;5032002;28;19920;-62
2022/07/22 03:57:06;;;;;;;;;;;27.10;41.00;;;;;;5032101;28;19913;-61
2022/07/22 03:59:32;;;;;;;;;;;27.00;42.00;;;;;;5032109;28;20473;-61
2022/07/22 04:01:57;;;;;;;;;;;27.10;41.40;;;;;;5032075;28;19913;-60
2022/07/22 04:04:23;;;;;;;;;;;26.90;42.10;;;;;;5032224;28;19921;-61
2022/07/22 04:06:51;;;;;;;;;;;26.90;41.90;;;;;;5032460;28;19909;-61
2022/07/22 04:09:16;;;;;;;;;;;27.00;42.10;;;;;;5032085;28;20716;-60
2022/07/22 04:11:42;;;;;;;;;;;27.10;42.20;;;;;;5032043;28;19953;-61
2022/07/22 04:14:08;;;;;;;;;;;26.90;41.60;;;;;;5031759;28;19955;-61
2022/07/22 04:16:34;;;;;;;;;;;26.90;42.20;;;;;;5033269;28;19921;-60
2022/07/22 04:19:00;;;;;;;;;;;26.90;42.20;;;;;;5033540;28;19913;-61
2022/07/22 04:21:26;;;;;;;;;;;27.00;42.20;;;;;;5032540;28;20441;-61
2022/07/22 04:23:52;;;;;;;;;;;27.00;42.10;;;;;;5034128;28;20269;-60
2022/07/22 04:26:18;;;;;;;;;;;27.10;41.70;;;;;;5035876;28;19909;-63
2022/07/22 04:28:43;;;;;;;;;;;27.10;41.90;;;;;;5036010;28;20320;-62
2022/07/22 04:31:09;;;;;;;;;;;27.10;41.80;;;;;;5035809;28;19913;-62
2022/07/22 04:33:35;;;;;;;;;;;26.90;40.40;;;;;;5035714;28;19909;-62
2022/07/22 04:36:00;;;;;;;;;;;27.10;41.60;;;;;;5035798;28;19924;-62
2022/07/22 04:38:26;;;;;;;;;;;27.10;41.80;;;;;;5035610;28;19913;-62
2022/07/22 04:40:51;;;;;;;;;;;27.10;42.20;;;;;;5035741;28;20421;-60
2022/07/22 04:43:17;;;;;;;;;;;27.10;39.90;;;;;;5035255;28;20253;-60
2022/07/22 04:45:42;;;;;;;;;;;27.20;41.00;;;;;;5035438;28;19913;-61
2022/07/22 04:48:08;;;;;;;;;;;27.40;37.90;;;;;;5035610;28;19913;-60
2022/07/22 04:50:35;;;;;;;;;;;27.50;39.60;;;;;;5035369;28;20370;-61
2022/07/22 04:53:01;;;;;;;;;;;27.50;39.60;;;;;;5035342;28;19913;-62
2022/07/22 04:55:26;;;;;;;;;;;27.50;39.40;;;;;;5033851;28;20011;-61
2022/07/22 04:57:52;;;;;;;;;;;27.50;39.60;;;;;;5035304;28;19959;-61
2022/07/22 05:00:17;;;;;;;;;;;27.50;39.30;;;;;;5035301;28;19909;-60
2022/07/22 05:02:43;;;;;;;;;;;27.50;39.80;;;;;;5034990;28;19913;-60
2022/07/22 05:05:08;;;;;;;;;;;27.50;38.30;;;;;;5035185;28;19916;-62
2022/07/22 05:07:34;;;;;;;;;;;27.50;37.70;;;;;;5034957;28;19917;-62
2022/07/22 05:09:59;;;;;;;;;;;27.60;36.80;;;;;;5035097;28;20006;-61
2022/07/22 05:12:25;;;;;;;;;;;27.70;35.10;;;;;;5034866;28;19913;-60
2022/07/22 05:14:51;;;;;;;;;;;28.00;34.30;;;;;;5034797;28;20360;-59
2022/07/22 05:17:16;;;;;;;;;;;28.00;34.50;;;;;;5034857;28;19913;-60
2022/07/22 05:19:42;;;;;;;;;;;28.10;33.90;;;;;;5034829;28;19909;-60
2022/07/22 05:22:07;;;;;;;;;;;28.20;34.30;;;;;;5034772;28;19956;-61
2022/07/22 05:24:33;;;;;;;;;;;28.20;34.40;;;;;;5034959;28;19909;-60
2022/07/22 05:26:58;;;;;;;;;;;28.20;35.40;;;;;;5034945;28;19913;-61
2022/07/22 05:29:24;;;;;;;;;;;28.20;36.80;;;;;;5036386;28;19917;-60
2022/07/22 05:31:49;;;;;;;;;;;28.10;36.80;;;;;;5039845;28;19963;-61
2022/07/22 05:34:15;;;;;;;;;;;28.10;37.30;;;;;;5034992;28;19924;-60
2022/07/22 05:36:41;;;;;;;;;;;28.10;37.60;;;;;;5034255;28;19921;-61
2022/07/22 05:39:06;;;;;;;;;;;28.00;37.70;;;;;;5035695;28;20258;-63
2022/07/22 05:41:32;;;;;;;;;;;28.00;37.90;;;;;;5036691;28;20246;-61
2022/07/22 05:43:57;;;;;;;;;;;28.00;36.60;;;;;;5038010;28;19925;-62
2022/07/22 05:46:23;;;;;;;;;;;27.90;39.00;;;;;;5034804;28;19916;-62
2022/07/22 05:48:49;;;;;;;;;;;27.90;37.70;;;;;;5035984;28;20011;-63
2022/07/22 05:51:15;;;;;;;;;;;28.00;38.00;;;;;;5036427;28;19917;-60
2022/07/22 05:53:41;;;;;;;;;;;28.40;38.60;;;;;;5035950;28;20405;-63
2022/07/22 05:56:08;;;;;;;;;;;28.90;37.50;;;;;;5036249;28;19917;-62
2022/07/22 05:58:34;;;;;;;;;;;29.30;36.40;;;;;;5034933;28;20003;-63
2022/07/22 06:00:59;;;;;;;;;;;29.70;35.50;;;;;;5034233;28;20000;-63
2022/07/22 06:03:25;;;;;;;;;;;30.10;34.00;;;;;;5034559;28;19932;-64
2022/07/22 06:05:51;;;;;;;;;;;30.40;34.20;;;;;;5033805;28;19913;-63
2022/07/22 06:08:17;;;;;;;;;;;30.60;33.20;;;;;;5034038;28;19910;-62
2022/07/22 06:10:42;;;;;;;;;;;30.80;33.10;;;;;;5033866;28;19910;-60
2022/07/22 06:13:08;;;;;;;;;;;31.00;32.30;;;;;;5034019;28;19913;-64
2022/07/22 06:15:34;;;;;;;;;;;31.20;31.80;;;;;;5033930;28;20379;-62
2022/07/22 06:17:59;;;;;;;;;;;31.30;31.40;;;;;;5033467;28;20358;-59
2022/07/22 06:20:25;;;;;;;;;;;31.50;31.00;;;;;;5033661;28;19917;-59
2022/07/22 06:22:50;;;;;;;;;;;31.70;31.20;;;;;;5033597;28;19956;-58
2022/07/22 06:25:16;;;;;;;;;;;31.90;31.30;;;;;;5033467;28;19920;-65
2022/07/22 06:27:41;;;;;;;;;;;32.10;31.30;;;;;;5033258;28;19913;-65
2022/07/22 06:30:08;;;;;;;;;;;32.30;30.30;;;;;;5033582;28;19909;-65
2022/07/22 06:32:34;;;;;;;;;;;32.40;30.10;;;;;;5032861;28;20323;-65
2022/07/22 06:34:59;;;;;;;;;;;32.60;30.00;;;;;;5032916;28;19917;-66
2022/07/22 06:37:25;;;;;;;;;;;32.70;29.90;;;;;;5032550;28;19982;-68
2022/07/22 06:39:50;;;;;;;;;;;32.90;30.00;;;;;;5032482;28;19909;-69
2022/07/22 06:42:16;;;;;;;;;;;33.00;29.60;;;;;;5032277;28;19919;-63
2022/07/22 06:44:42;;;;;;;;;;;33.10;29.60;;;;;;5032649;28;19929;-67
2022/07/22 06:47:07;;;;;;;;;;;33.30;29.20;;;;;;5033212;28;19910;-65
2022/07/22 06:49:33;;;;;;;;;;;33.40;28.80;;;;;;5033303;28;19909;-64
2022/07/22 06:51:58;;;;;;;;;;;33.50;28.60;;;;;;5032922;28;20335;-64
2022/07/22 06:54:24;;;;;;;;;;;33.60;27.60;;;;;;5033167;28;19909;-64
2022/07/22 06:56:49;;;;;;;;;;;33.60;27.50;;;;;;5032887;28;20361;-65
2022/07/22 06:59:15;;;;;;;;;;;33.80;27.80;;;;;;5032808;28;19914;-64
2022/07/22 07:01:40;;;;;;;;;;;33.80;27.70;;;;;;5032957;28;19909;-65
2022/07/22 07:04:06;;;;;;;;;;;33.90;27.90;;;;;;5032768;28;20009;-64
2022/07/22 07:06:32;;;;;;;;;;;33.90;28.10;;;;;;5032937;28;19913;-64
2022/07/22 07:08:57;;;;;;;;;;;34.10;27.50;;;;;;5032320;28;19920;-61
2022/07/22 07:11:23;;;;;;;;;;;34.20;27.50;;;;;;5032752;28;19913;-61
2022/07/22 07:13:48;;;;;;;;;;;34.20;27.30;;;;;;5032665;28;19913;-59
2022/07/22 07:16:14;;;;;;;;;;;34.00;27.70;;;;;;5032384;28;19960;-61
2022/07/22 07:18:39;;;;;;;;;;;34.10;27.30;;;;;;5032602;28;19920;-60
2022/07/22 07:21:05;;;;;;;;;;;34.20;26.90;;;;;;5032715;28;20389;-61
2022/07/22 07:23:31;;;;;;;;;;;34.40;26.70;;;;;;5032767;28;19916;-62
2022/07/22 07:25:56;;;;;;;;;;;34.50;25.20;;;;;;5032366;28;20361;-61
2022/07/22 07:28:22;;;;;;;;;;;34.70;23.50;;;;;;5031910;28;19917;-61
2022/07/22 07:30:48;;;;;;;;;;;34.70;23.70;;;;;;5031572;28;19917;-61
2022/07/22 07:33:14;;;;;;;;;;;34.90;23.70;;;;;;5031190;28;19913;-59
2022/07/22 07:35:39;;;;;;;;;;;35.00;23.50;;;;;;5030283;28;19928;-61
2022/07/22 07:38:05;;;;;;;;;;;35.00;23.20;;;;;;5031569;28;20007;-61
2022/07/22 07:40:30;;;;;;;;;;;35.30;23.10;;;;;;5031626;28;20406;-63
2022/07/22 07:42:56;;;;;;;;;;;35.50;23.20;;;;;;5031439;28;19921;-62
2022/07/22 07:45:21;;;;;;;;;;;35.60;23.20;;;;;;5028120;28;19967;-60
2022/07/22 07:47:47;;;;;;;;;;;35.80;23.10;;;;;;5031304;28;19913;-67
2022/07/22 07:50:13;;;;;;;;;;;36.00;22.50;;;;;;5031211;28;20420;-63
2022/07/22 07:52:40;;;;;;;;;;;36.10;23.00;;;;;;5031208;28;20420;-63
2022/07/22 07:55:06;;;;;;;;;;;36.30;23.20;;;;;;5030797;28;19927;-61
2022/07/22 07:57:32;;;;;;;;;;;36.40;22.90;;;;;;5030970;28;19910;-62
2022/07/22 07:59:57;;;;;;;;;;;36.50;22.70;;;;;;5030591;28;19920;-62
2022/07/22 08:02:23;;;;;;;;;;;36.70;22.70;;;;;;5031056;28;20377;-63
2022/07/22 08:04:48;;;;;;;;;;;36.70;22.40;;;;;;5033856;28;20410;-60
2022/07/22 08:07:14;;;;;;;;;;;36.60;22.30;;;;;;5031119;28;20439;-65
2022/07/22 08:09:40;;;;;;;;;;;36.70;22.30;;;;;;5030995;28;20004;-62
2022/07/22 08:12:06;;;;;;;;;;;36.60;22.60;;;;;;5029861;28;19917;-61
2022/07/22 08:14:32;;;;;;;;;;;36.30;22.60;;;;;;5031824;28;19915;-63
2022/07/22 08:16:57;;;;;;;;;;;36.20;22.60;;;;;;5031959;28;19913;-60
2022/07/22 08:19:23;;;;;;;;;;;36.20;22.60;;;;;;5031963;28;19952;-63
2022/07/22 08:21:49;;;;;;;;;;;36.10;23.00;;;;;;5031676;28;19909;-60
2022/07/22 08:24:14;;;;;;;;;;;36.10;22.70;;;;;;5031801;28;19916;-60
2022/07/22 08:26:40;;;;;;;;;;;36.00;22.40;;;;;;5031709;28;19951;-62
2022/07/22 08:29:07;;;;;;;;;;;36.00;22.90;;;;;;5031409;28;20047;-61
2022/07/22 08:31:34;;;;;;;;;;;36.00;22.90;;;;;;5031125;28;19971;-62
2022/07/22 08:34:00;;;;;;;;;;;36.00;31.10;;;;;;5031523;28;19917;-63
2022/07/22 08:36:26;;;;;;;;;;;36.10;33.90;;;;;;5031595;28;19921;-65
2022/07/22 08:38:52;;;;;;;;;;;36.00;33.80;;;;;;5031474;28;20498;-64
2022/07/22 08:41:18;;;;;;;;;;;36.00;35.40;;;;;;5031920;28;20254;-65
2022/07/22 08:43:46;;;;;;;;;;;35.80;36.90;;;;;;5031430;28;19928;-62
2022/07/22 08:46:12;;;;;;;;;;;35.70;37.50;;;;;;5031592;28;20074;-62
2022/07/22 08:48:38;;;;;;;;;;;35.50;38.60;;;;;;5031516;28;19920;-61
2022/07/22 08:51:04;;;;;;;;;;;35.40;38.90;;;;;;5031687;28;20000;-60
2022/07/22 08:53:29;;;;;;;;;;;35.30;38.90;;;;;;5031558;28;19909;-62
2022/07/22 08:55:55;;;;;;;;;;;35.20;39.70;;;;;;5031430;28;19996;-60
2022/07/22 08:58:21;;;;;;;;;;;35.10;38.80;;;;;;5031449;28;20258;-60
2022/07/22 09:00:46;;;;;;;;;;;35.10;37.80;;;;;;5031490;28;19990;-60
2022/07/22 09:03:22;;;;;;;;;;;35.30;37.00;;;;;;5031501;28;19913;-62
2022/07/22 09:05:51;;;;;;;;;;;35.20;35.80;;;;;;5031239;28;19913;-61
2022/07/22 09:08:17;;;;;;;;;;;35.20;35.30;;;;;;5031467;28;19913;-62
2022/07/22 09:10:43;;;;;;;;;;;35.30;35.10;;;;;;5032416;28;20314;-64
2022/07/22 09:13:09;;;;;;;;;;;35.30;34.30;;;;;;5034897;28;19909;-61
2022/07/22 09:15:45;;;;;;;;;;;35.30;33.30;;;;;;5035536;28;19921;-62
2022/07/22 09:18:10;;;;;;;;;;;35.30;33.80;;;;;;5036690;28;19916;-60
2022/07/22 09:20:37;;;;;;;;;;;35.30;33.80;;;;;;5037718;28;19913;-62
2022/07/22 09:23:08;;;;;;;;;;;35.30;33.50;;;;;;5036802;28;20341;-61
2022/07/22 09:25:35;;;;;;;;;;;35.30;32.20;;;;;;5034954;28;19909;-63
2022/07/22 09:28:06;;;;;;;;;;;35.10;31.70;;;;;;5034862;28;19909;-64
2022/07/22 09:30:33;;;;;;;;;;;35.00;33.00;;;;;;5034686;28;20367;-63
2022/07/22 09:32:58;;;;;;;;;;;34.90;32.10;;;;;;5034359;28;19956;-61
2022/07/22 09:35:24;;;;;;;;;;;35.00;30.90;;;;;;5034223;28;20364;-58
2022/07/22 09:37:51;;;;;;;;;;;34.90;29.40;;;;;;5034427;28;19920;-60
2022/07/22 09:40:18;;;;;;;;;;;34.70;30.50;;;;;;5034520;28;19913;-58
2022/07/22 09:42:48;;;;;;;;;;;34.60;30.70;;;;;;5034028;28;19921;-58
2022/07/22 09:45:14;;;;;;;;;;;34.60;33.00;;;;;;5034111;28;19925;-66
2022/07/22 09:47:43;;;;;;;;;;;34.60;34.10;;;;;;5034252;28;19988;-61
2022/07/22 09:50:15;;;;;;;;;;;34.70;33.70;;;;;;5034183;28;19909;-63
2022/07/22 09:52:42;;;;;;;;;;;34.60;35.70;;;;;;5034125;28;19909;-59
2022/07/22 09:55:08;;;;;;;;;;;34.60;39.50;;;;;;5033863;28;20273;-57
2022/07/22 09:57:34;;;;;;;;;;;34.60;38.90;;;;;;5034155;28;19917;-60
2022/07/22 09:59:59;;;;;;;;;;;34.40;37.80;;;;;;5033585;28;19917;-62
2022/07/22 10:02:26;;;;;;;;;;;34.30;36.10;;;;;;5032860;28;19917;-61
2022/07/22 10:04:52;;;;;;;;;;;34.40;33.10;;;;;;5032919;28;19920;-61
2022/07/22 10:07:18;;;;;;;;;;;34.40;31.80;;;;;;5033142;28;19949;-60
2022/07/22 10:09:45;;;;;;;;;;;34.40;31.10;;;;;;5032694;28;20431;-61
2022/07/22 10:12:11;;;;;;;;;;;34.30;30.90;;;;;;5033317;28;19920;-60
2022/07/22 10:14:37;;;;;;;;;;;34.30;31.70;;;;;;5033482;28;19913;-58
2022/07/22 10:17:03;;;;;;;;;;;34.30;31.40;;;;;;5033860;28;19923;-60
2022/07/22 10:19:29;;;;;;;;;;;34.30;31.50;;;;;;5033614;28;20012;-60
2022/07/22 10:21:54;;;;;;;;;;;34.40;30.90;;;;;;5033308;28;19999;-61
2022/07/22 10:24:25;;;;;;;;;;;34.20;30.90;;;;;;5032713;28;19995;-62
2022/07/22 10:26:53;;;;;;;;;;;34.10;30.90;;;;;;5031175;28;20396;-59
2022/07/22 10:29:25;;;;;;;;;;;34.20;31.60;;;;;;5032352;28;19948;-58
2022/07/22 10:32:11;;;;;;;;;;;34.20;30.90;;;;;;5032876;28;19940;-59
2022/07/22 10:34:36;;;;;;;;;;;34.10;30.60;;;;;;5031759;28;20276;-60
2022/07/22 10:37:02;;;;;;;;;;;34.20;30.50;;;;;;5032743;28;19979;-61
2022/07/22 10:39:27;;;;;;;;;;;34.20;30.10;;;;;;5033240;28;20369;-59
2022/07/22 10:41:53;;;;;;;;;;;34.30;30.00;;;;;;5033237;28;19913;-59
2022/07/22 10:44:37;;;;;;;;;;;34.40;29.80;;;;;;5032963;28;19927;-61
2022/07/22 10:47:03;;;;;;;;;;;34.40;29.70;;;;;;5033091;28;19913;-61
2022/07/22 10:49:28;;;;;;;;;;;34.40;29.60;;;;;;5033200;28;19931;-59
2022/07/22 10:52:06;;;;;;;;;;;34.30;30.20;;;;;;5033079;28;19917;-60
2022/07/22 10:54:32;;;;;;;;;;;34.50;29.80;;;;;;5033128;28;19955;-61
2022/07/22 10:56:59;;;;;;;;;;;34.60;29.50;;;;;;5030941;28;19925;-60
2022/07/22 10:59:24;;;;;;;;;;;34.50;29.10;;;;;;5032234;28;19932;-60
2022/07/22 11:01:50;;;;;;;;;;;34.50;28.50;;;;;;5031907;28;20314;-60
2022/07/22 11:04:24;;;;;;;;;;;34.40;28.60;;;;;;5031868;28;19917;-61
2022/07/22 11:06:50;;;;;;;;;;;34.40;28.20;;;;;;5031566;28;19913;-62
2022/07/22 11:09:17;;;;;;;;;;;34.40;28.40;;;;;;5033051;28;19913;-61
2022/07/22 11:11:49;;;;;;;;;;;34.40;28.30;;;;;;5035878;28;20272;-63
2022/07/22 11:14:15;;;;;;;;;;;34.50;28.20;;;;;;5031946;28;19917;-61
2022/07/22 11:16:40;;;;;;;;;;;34.50;27.90;;;;;;5031581;28;19924;-62
2022/07/22 11:19:06;;;;;;;;;;;34.50;27.40;;;;;;5035706;28;19970;-62
2022/07/22 11:21:32;;;;;;;;;;;34.60;27.50;;;;;;5041341;28;19913;-60
2022/07/22 11:23:59;;;;;;;;;;;34.50;27.80;;;;;;5030901;28;19909;-61
2022/07/22 11:26:31;;;;;;;;;;;34.50;27.50;;;;;;5031767;28;19920;-59
2022/07/22 11:28:57;;;;;;;;;;;34.60;27.70;;;;;;5031007;28;19913;-59
2022/07/22 11:31:22;;;;;;;;;;;34.60;27.60;;;;;;5031688;28;20403;-58
2022/07/22 11:33:48;;;;;;;;;;;34.50;27.90;;;;;;5041848;28;19970;-62
2022/07/22 11:36:13;;;;;;;;;;;34.60;28.40;;;;;;5047675;28;19917;-60
2022/07/22 11:38:40;;;;;;;;;;;34.60;28.30;;;;;;5037841;28;19913;-63
2022/07/22 11:41:06;;;;;;;;;;;34.60;28.10;;;;;;5030868;28;20020;-59
2022/07/22 11:43:38;;;;;;;;;;;34.70;28.40;;;;;;5031085;28;20003;-62
2022/07/22 11:46:04;;;;;;;;;;;34.60;28.50;;;;;;5031056;28;20377;-60
2022/07/22 11:48:29;;;;;;;;;;;34.50;28.80;;;;;;5031169;28;19971;-61
2022/07/22 11:51:05;;;;;;;;;;;34.50;29.00;;;;;;5030759;28;19956;-58
2022/07/22 11:53:30;;;;;;;;;;;34.50;29.30;;;;;;5031135;28;19910;-59
2022/07/22 11:55:59;;;;;;;;;;;34.40;29.20;;;;;;5035420;28;19921;-60
2022/07/22 11:58:35;;;;;;;;;;;34.40;29.40;;;;;;5050051;28;19913;-60
2022/07/22 12:01:01;;;;;;;;;;;34.30;27.90;;;;;;5030395;28;20003;-68
2022/07/22 12:03:27;;;;;;;;;;;34.30;28.60;;;;;;5030762;28;20010;-64
2022/07/22 12:05:53;;;;;;;;;;;34.20;28.80;;;;;;5030461;28;19948;-63
2022/07/22 12:08:19;;;;;;;;;;;34.20;29.10;;;;;;5030736;28;19916;-62
2022/07/22 12:10:45;;;;;;;;;;;34.10;29.30;;;;;;5030872;28;20370;-72
2022/07/22 12:13:13;;;;;;;;;;;34.10;29.70;;;;;;5030605;28;20391;-61
2022/07/22 12:15:38;;;;;;;;;;;34.10;29.00;;;;;;5022590;28;19918;-61
2022/07/22 12:18:24;;;;;;;;;;;34.00;29.10;;;;;;5020701;28;19919;-60
2022/07/22 12:20:50;;;;;;;;;;;34.10;28.20;;;;;;5029384;28;19913;-60
2022/07/22 12:23:16;;;;;;;;;;;34.10;28.20;;;;;;5030628;28;19939;-60
2022/07/22 12:25:51;;;;;;;;;;;34.20;28.30;;;;;;5030643;28;20365;-59
2022/07/22 12:28:16;;;;;;;;;;;34.10;28.30;;;;;;5030450;28;20296;-63
2022/07/22 12:30:42;;;;;;;;;;;34.20;28.50;;;;;;5030555;28;19909;-60
2022/07/22 12:33:15;;;;;;;;;;;34.20;28.60;;;;;;5030347;28;20004;-62
2022/07/22 12:35:41;;;;;;;;;;;34.20;28.10;;;;;;5026836;28;20390;-60
2022/07/22 12:38:07;;;;;;;;;;;34.20;27.90;;;;;;5030510;28;19952;-59
2022/07/22 12:40:33;;;;;;;;;;;34.20;28.10;;;;;;5030957;28;19909;-60
2022/07/22 12:43:02;;;;;;;;;;;34.20;28.30;;;;;;5027797;28;20349;-61
2022/07/22 12:45:29;;;;;;;;;;;34.30;27.70;;;;;;5033167;28;19967;-65
2022/07/22 12:47:59;;;;;;;;;;;34.30;27.60;;;;;;5034448;28;19920;-61
2022/07/22 12:50:24;;;;;;;;;;;34.30;28.00;;;;;;5033967;28;19913;-60
2022/07/22 12:52:51;;;;;;;;;;;34.20;27.60;;;;;;5033956;28;19914;-59
2022/07/22 12:55:16;;;;;;;;;;;34.30;27.60;;;;;;5034098;28;19917;-60
2022/07/22 12:57:42;;;;;;;;;;;34.30;27.60;;;;;;5034424;28;19917;-60
2022/07/22 13:00:08;;;;;;;;;;;34.30;27.40;;;;;;5034838;28;19913;-61
2022/07/22 13:02:34;;;;;;;;;;;34.40;27.60;;;;;;5035077;28;19917;-60
2022/07/22 13:04:59;;;;;;;;;;;34.20;27.30;;;;;;5039313;28;19909;-59
2022/07/22 13:07:25;;;;;;;;;;;34.20;27.60;;;;;;5040942;28;19917;-58
2022/07/22 13:09:51;;;;;;;;;;;34.20;27.70;;;;;;5038684;28;20090;-58
2022/07/22 13:12:16;;;;;;;;;;;34.10;27.80;;;;;;5037307;28;19916;-61
2022/07/22 13:14:42;;;;;;;;;;;34.10;27.50;;;;;;5034735;28;19913;-59
2022/07/22 13:17:07;;;;;;;;;;;34.20;27.60;;;;;;5034811;28;19917;-60
2022/07/22 13:19:33;;;;;;;;;;;34.20;27.80;;;;;;5034694;28;20382;-60
2022/07/22 13:21:58;;;;;;;;;;;34.20;27.40;;;;;;5034829;28;20385;-62
2022/07/22 13:24:24;;;;;;;;;;;34.20;27.40;;;;;;5034793;28;20279;-61
2022/07/22 13:26:49;;;;;;;;;;;34.20;27.50;;;;;;5034541;28;19909;-65
2022/07/22 13:29:16;;;;;;;;;;;34.30;27.60;;;;;;5034599;28;19956;-65
2022/07/22 13:31:41;;;;;;;;;;;34.30;27.50;;;;;;5034623;28;19920;-61
2022/07/22 13:34:07;;;;;;;;;;;34.40;27.50;;;;;;5034538;28;20008;-62
2022/07/22 13:36:33;;;;;;;;;;;34.40;27.50;;;;;;5034126;28;19917;-66
2022/07/22 13:38:59;;;;;;;;;;;34.40;27.30;;;;;;5034285;28;19948;-67
2022/07/22 13:41:25;;;;;;;;;;;34.40;27.30;;;;;;5034323;28;19956;-66
2022/07/22 13:43:51;;;;;;;;;;;34.40;27.30;;;;;;5033937;28;19921;-60
2022/07/22 13:46:17;;;;;;;;;;;34.40;27.20;;;;;;5034144;28;19909;-65
2022/07/22 13:48:43;;;;;;;;;;;34.50;27.30;;;;;;5034100;28;20353;-60
2022/07/22 13:51:08;;;;;;;;;;;34.60;27.10;;;;;;5034290;28;19967;-67
2022/07/22 13:53:34;;;;;;;;;;;34.60;27.10;;;;;;5034113;28;19920;-59
2022/07/22 13:56:00;;;;;;;;;;;34.60;27.10;;;;;;5032798;28;19921;-68
2022/07/22 13:58:26;;;;;;;;;;;34.60;27.10;;;;;;5033966;28;19913;-67
2022/07/22 14:00:52;;;;;;;;;;;34.60;26.60;;;;;;5033926;28;20000;-59
2022/07/22 14:03:17;;;;;;;;;;;34.60;26.90;;;;;;5033817;28;19917;-62
2022/07/22 14:05:43;;;;;;;;;;;34.60;26.40;;;;;;5033705;28;20360;-59
2022/07/22 14:08:09;;;;;;;;;;;34.60;26.20;;;;;;5033774;28;20289;-60
2022/07/22 14:10:34;;;;;;;;;;;34.60;25.90;;;;;;5033779;28;19913;-67